sensor_id;sensor_type;location;lat;lon;timestamp;pressure;altitude;pressure_sealevel;temperature;humidity
21182;BME280;10749;46.296;7.524;2023-05-09T00:01:10;95156.63;;;18.68;48.17
21182;BME280;10749;46.296;7.524;2023-05-09T00:03:35;95159.75;;;18.65;47.49
21182;BME280;10749;46.296;7.524;2023-05-09T00:06:00;95166.16;;;18.64;48.12
21182;BME280;10749;46.296;7.524;2023-05-09T00:08:26;95150.06;;;18.64;47.74
21182;BME280;10749;46.296;7.524;2023-05-09T00:10:52;95158.72;;;18.66;47.86
21182;BME280;10749;46.296;7.524;2023-05-09T00:13:18;95158.34;;;18.62;48.20
21182;BME280;10749;46.296;7.524;2023-05-09T00:15:43;95154.84;;;18.62;47.43
21182;BME280;10749;46.296;7.524;2023-05-09T00:18:08;95148.88;;;18.60;47.68
21182;BME280;10749;46.296;7.524;2023-05-09T00:20:33;95148.50;;;18.56;48.13
21182;BME280;10749;46.296;7.524;2023-05-09T00:22:59;95143.38;;;18.55;47.99
21182;BME280;10749;46.296;7.524;2023-05-09T00:25:24;95145.22;;;18.54;48.40
21182;BME280;10749;46.296;7.524;2023-05-09T00:27:49;95146.88;;;18.55;48.21
21182;BME280;10749;46.296;7.524;2023-05-09T00:30:15;95137.41;;;18.53;48.34
21182;BME280;10749;46.296;7.524;2023-05-09T00:32:40;95137.56;;;18.51;48.24
21182;BME280;10749;46.296;7.524;2023-05-09T00:35:06;95129.78;;;18.50;48.47
21182;BME280;10749;46.296;7.524;2023-05-09T00:37:32;95124.63;;;18.48;48.33
21182;BME280;10749;46.296;7.524;2023-05-09T00:39:57;95130.88;;;18.42;48.75
21182;BME280;10749;46.296;7.524;2023-05-09T00:42:23;95129.03;;;18.42;48.37
21182;BME280;10749;46.296;7.524;2023-05-09T00:44:48;95123.06;;;18.40;48.78
21182;BME280;10749;46.296;7.524;2023-05-09T00:47:13;95122.47;;;18.38;48.78
21182;BME280;10749;46.296;7.524;2023-05-09T00:49:39;95118.72;;;18.39;48.60
21182;BME280;10749;46.296;7.524;2023-05-09T00:52:04;95119.19;;;18.36;48.74
21182;BME280;10749;46.296;7.524;2023-05-09T00:54:30;95121.88;;;18.36;49.12
21182;BME280;10749;46.296;7.524;2023-05-09T00:56:55;95118.59;;;18.34;48.77
21182;BME280;10749;46.296;7.524;2023-05-09T00:59:20;95107.28;;;18.32;49.14
21182;BME280;10749;46.296;7.524;2023-05-09T01:01:46;95109.94;;;18.32;49.03
21182;BME280;10749;46.296;7.524;2023-05-09T01:04:12;95106.22;;;18.33;49.13
21182;BME280;10749;46.296;7.524;2023-05-09T01:09:19;95111.22;;;18.30;49.09
21182;BME280;10749;46.296;7.524;2023-05-09T01:12:00;95099.44;;;18.31;48.91
21182;BME280;10749;46.296;7.524;2023-05-09T01:14:38;95094.31;;;18.29;49.25
21182;BME280;10749;46.296;7.524;2023-05-09T01:17:30;95110.81;;;18.26;49.61
21182;BME280;10749;46.296;7.524;2023-05-09T01:22:38;95100.09;;;18.26;49.48
21182;BME280;10749;46.296;7.524;2023-05-09T01:25:32;95108.97;;;18.27;49.52
21182;BME280;10749;46.296;7.524;2023-05-09T01:31:07;95100.53;;;18.23;49.62
21182;BME280;10749;46.296;7.524;2023-05-09T01:33:36;95103.69;;;18.20;49.83
21182;BME280;10749;46.296;7.524;2023-05-09T01:36:04;95097.56;;;18.13;49.94
21182;BME280;10749;46.296;7.524;2023-05-09T01:38:33;95102.31;;;18.11;49.84
21182;BME280;10749;46.296;7.524;2023-05-09T01:41:01;95099.78;;;18.16;50.02
21182;BME280;10749;46.296;7.524;2023-05-09T01:43:30;95095.25;;;18.17;49.96
21182;BME280;10749;46.296;7.524;2023-05-09T01:45:58;95091.97;;;18.15;49.76
21182;BME280;10749;46.296;7.524;2023-05-09T01:48:24;95086.69;;;18.08;50.03
21182;BME280;10749;46.296;7.524;2023-05-09T01:50:52;95092.50;;;18.05;49.71
21182;BME280;10749;46.296;7.524;2023-05-09T01:53:18;95084.47;;;18.05;50.05
21182;BME280;10749;46.296;7.524;2023-05-09T01:55:46;95089.63;;;18.00;50.31
21182;BME280;10749;46.296;7.524;2023-05-09T01:58:13;95087.41;;;17.97;50.07
21182;BME280;10749;46.296;7.524;2023-05-09T02:00:40;95088.44;;;17.96;50.03
21182;BME280;10749;46.296;7.524;2023-05-09T02:03:06;95085.16;;;17.94;50.22
21182;BME280;10749;46.296;7.524;2023-05-09T02:05:32;95084.56;;;17.92;50.21
21182;BME280;10749;46.296;7.524;2023-05-09T02:07:58;95088.47;;;17.89;50.24
21182;BME280;10749;46.296;7.524;2023-05-09T02:10:24;95084.41;;;17.87;50.00
21182;BME280;10749;46.296;7.524;2023-05-09T02:12:51;95083.56;;;17.86;50.28
21182;BME280;10749;46.296;7.524;2023-05-09T02:15:16;95085.88;;;17.83;50.13
21182;BME280;10749;46.296;7.524;2023-05-09T02:17:42;95090.59;;;17.81;50.26
21182;BME280;10749;46.296;7.524;2023-05-09T02:20:08;95084.88;;;17.77;49.92
21182;BME280;10749;46.296;7.524;2023-05-09T02:22:38;95092.75;;;17.72;49.98
21182;BME280;10749;46.296;7.524;2023-05-09T02:25:05;95083.50;;;17.68;49.89
21182;BME280;10749;46.296;7.524;2023-05-09T02:27:33;95086.16;;;17.68;49.93
21182;BME280;10749;46.296;7.524;2023-05-09T02:30:01;95087.00;;;17.69;50.05
21182;BME280;10749;46.296;7.524;2023-05-09T02:32:30;95082.91;;;17.66;50.28
21182;BME280;10749;46.296;7.524;2023-05-09T02:34:57;95084.97;;;17.64;50.45
21182;BME280;10749;46.296;7.524;2023-05-09T02:37:23;95087.25;;;17.61;50.22
21182;BME280;10749;46.296;7.524;2023-05-09T02:39:49;95095.72;;;17.58;50.46
21182;BME280;10749;46.296;7.524;2023-05-09T02:42:20;95089.75;;;17.56;50.74
21182;BME280;10749;46.296;7.524;2023-05-09T02:44:46;95074.31;;;17.58;50.50
21182;BME280;10749;46.296;7.524;2023-05-09T02:47:11;95077.84;;;17.51;50.82
21182;BME280;10749;46.296;7.524;2023-05-09T02:49:36;95079.31;;;17.47;50.85
21182;BME280;10749;46.296;7.524;2023-05-09T02:52:02;95073.56;;;17.44;50.87
21182;BME280;10749;46.296;7.524;2023-05-09T02:54:28;95078.53;;;17.40;50.81
21182;BME280;10749;46.296;7.524;2023-05-09T02:56:53;95074.63;;;17.36;50.75
21182;BME280;10749;46.296;7.524;2023-05-09T02:59:18;95075.66;;;17.35;50.70
21182;BME280;10749;46.296;7.524;2023-05-09T03:01:44;95072.41;;;17.33;50.95
21182;BME280;10749;46.296;7.524;2023-05-09T03:04:10;95073.88;;;17.29;51.31
21182;BME280;10749;46.296;7.524;2023-05-09T03:06:36;95074.31;;;17.26;50.96
21182;BME280;10749;46.296;7.524;2023-05-09T03:09:01;95069.38;;;17.23;51.17
21182;BME280;10749;46.296;7.524;2023-05-09T03:11:27;95065.47;;;17.19;51.32
21182;BME280;10749;46.296;7.524;2023-05-09T03:13:52;95062.03;;;17.12;51.12
21182;BME280;10749;46.296;7.524;2023-05-09T03:16:18;95066.16;;;17.08;51.19
21182;BME280;10749;46.296;7.524;2023-05-09T03:18:44;95064.53;;;17.07;51.44
21182;BME280;10749;46.296;7.524;2023-05-09T03:21:09;95069.09;;;17.00;51.39
21182;BME280;10749;46.296;7.524;2023-05-09T03:23:34;95065.22;;;16.96;51.38
21182;BME280;10749;46.296;7.524;2023-05-09T03:26:00;95065.22;;;16.96;51.38
21182;BME280;10749;46.296;7.524;2023-05-09T03:28:26;95066.22;;;16.95;51.78
21182;BME280;10749;46.296;7.524;2023-05-09T03:30:52;95065.78;;;16.98;51.34
21182;BME280;10749;46.296;7.524;2023-05-09T03:33:17;95070.75;;;17.01;51.52
21182;BME280;10749;46.296;7.524;2023-05-09T03:35:43;95073.41;;;17.01;51.63
21182;BME280;10749;46.296;7.524;2023-05-09T03:38:08;95073.81;;;16.98;51.58
21182;BME280;10749;46.296;7.524;2023-05-09T03:40:34;95068.31;;;16.93;52.02
21182;BME280;10749;46.296;7.524;2023-05-09T03:42:59;95067.09;;;16.89;51.95
21182;BME280;10749;46.296;7.524;2023-05-09T03:45:24;95066.09;;;16.83;52.35
21182;BME280;10749;46.296;7.524;2023-05-09T03:47:49;95066.91;;;16.84;51.97
21182;BME280;10749;46.296;7.524;2023-05-09T03:50:15;95056.22;;;16.84;52.34
21182;BME280;10749;46.296;7.524;2023-05-09T03:52:40;95063.63;;;16.82;52.39
21182;BME280;10749;46.296;7.524;2023-05-09T03:55:06;95065.25;;;16.83;52.13
21182;BME280;10749;46.296;7.524;2023-05-09T03:57:33;95061.56;;;16.84;52.31
21182;BME280;10749;46.296;7.524;2023-05-09T03:59:59;95061.56;;;16.84;52.23
21182;BME280;10749;46.296;7.524;2023-05-09T04:02:24;95062.78;;;16.81;52.19
21182;BME280;10749;46.296;7.524;2023-05-09T04:04:50;95060.94;;;16.82;52.50
21182;BME280;10749;46.296;7.524;2023-05-09T04:07:16;95060.75;;;16.83;52.44
21182;BME280;10749;46.296;7.524;2023-05-09T04:09:42;95062.00;;;16.81;52.32
21182;BME280;10749;46.296;7.524;2023-05-09T04:12:07;95060.34;;;16.80;52.41
21182;BME280;10749;46.296;7.524;2023-05-09T04:14:33;95052.91;;;16.82;52.79
21182;BME280;10749;46.296;7.524;2023-05-09T04:16:58;95050.25;;;16.82;52.79
21182;BME280;10749;46.296;7.524;2023-05-09T04:19:23;95064.44;;;16.82;52.79
21182;BME280;10749;46.296;7.524;2023-05-09T04:21:49;95064.81;;;16.86;52.68
21182;BME280;10749;46.296;7.524;2023-05-09T04:24:14;95068.31;;;16.86;52.77
21182;BME280;10749;46.296;7.524;2023-05-09T04:26:39;95056.78;;;16.92;52.60
21182;BME280;10749;46.296;7.524;2023-05-09T04:29:05;95067.25;;;16.94;52.83
21182;BME280;10749;46.296;7.524;2023-05-09T04:31:30;95060.69;;;16.96;53.06
21182;BME280;10749;46.296;7.524;2023-05-09T04:33:56;95061.50;;;16.97;52.98
21182;BME280;10749;46.296;7.524;2023-05-09T04:36:22;95064.34;;;17.02;52.83
21182;BME280;10749;46.296;7.524;2023-05-09T04:38:48;95062.31;;;16.97;52.93
21182;BME280;10749;46.296;7.524;2023-05-09T04:41:13;95061.06;;;17.00;52.94
21182;BME280;10749;46.296;7.524;2023-05-09T04:43:39;95062.72;;;17.01;52.96
21182;BME280;10749;46.296;7.524;2023-05-09T04:46:04;95070.31;;;17.04;53.12
21182;BME280;10749;46.296;7.524;2023-05-09T04:48:30;95071.72;;;17.06;52.79
21182;BME280;10749;46.296;7.524;2023-05-09T04:50:55;95060.81;;;17.08;53.08
21182;BME280;10749;46.296;7.524;2023-05-09T04:53:20;95065.72;;;17.11;53.15
21182;BME280;10749;46.296;7.524;2023-05-09T04:55:45;95062.22;;;17.17;52.85
21182;BME280;10749;46.296;7.524;2023-05-09T04:58:11;95065.47;;;17.19;52.94
21182;BME280;10749;46.296;7.524;2023-05-09T05:00:36;95060.75;;;17.21;53.11
21182;BME280;10749;46.296;7.524;2023-05-09T05:03:01;95058.06;;;17.21;53.51
21182;BME280;10749;46.296;7.524;2023-05-09T05:05:27;95059.28;;;17.25;53.42
21182;BME280;10749;46.296;7.524;2023-05-09T05:07:52;95064.19;;;17.28;53.34
21182;BME280;10749;46.296;7.524;2023-05-09T05:10:18;95055.16;;;17.29;53.54
21182;BME280;10749;46.296;7.524;2023-05-09T05:12:44;95053.50;;;17.28;53.25
21182;BME280;10749;46.296;7.524;2023-05-09T05:15:10;95055.16;;;17.29;53.72
21182;BME280;10749;46.296;7.524;2023-05-09T05:17:36;95059.03;;;17.33;53.41
21182;BME280;10749;46.296;7.524;2023-05-09T05:20:01;95060.66;;;17.34;53.83
21182;BME280;10749;46.296;7.524;2023-05-09T05:22:27;95060.03;;;17.39;53.43
21182;BME280;10749;46.296;7.524;2023-05-09T05:24:52;95068.81;;;17.46;53.85
21182;BME280;10749;46.296;7.524;2023-05-09T05:27:17;95068.16;;;17.50;53.83
21182;BME280;10749;46.296;7.524;2023-05-09T05:29:43;95065.06;;;17.53;54.01
21182;BME280;10749;46.296;7.524;2023-05-09T05:32:08;95062.16;;;17.62;53.93
21182;BME280;10749;46.296;7.524;2023-05-09T05:34:34;95058.63;;;17.68;53.76
21182;BME280;10749;46.296;7.524;2023-05-09T05:37:00;95063.91;;;17.74;53.91
21182;BME280;10749;46.296;7.524;2023-05-09T05:39:25;95062.63;;;17.77;54.10
21182;BME280;10749;46.296;7.524;2023-05-09T05:41:50;95059.00;;;17.71;54.20
21182;BME280;10749;46.296;7.524;2023-05-09T05:44:16;95048.28;;;17.71;54.15
21182;BME280;10749;46.296;7.524;2023-05-09T05:46:41;95060.56;;;17.79;54.36
21182;BME280;10749;46.296;7.524;2023-05-09T05:49:06;95057.63;;;17.87;54.28
21182;BME280;10749;46.296;7.524;2023-05-09T05:51:31;95053.47;;;17.91;53.10
21182;BME280;10749;46.296;7.524;2023-05-09T05:53:57;95044.69;;;17.84;53.09
21182;BME280;10749;46.296;7.524;2023-05-09T05:56:22;95047.34;;;17.84;53.28
21182;BME280;10749;46.296;7.524;2023-05-09T05:58:47;95048.97;;;17.85;53.59
21182;BME280;10749;46.296;7.524;2023-05-09T06:01:13;95045.59;;;17.96;53.72
21182;BME280;10749;46.296;7.524;2023-05-09T06:03:38;95047.53;;;18.07;53.54
21182;BME280;10749;46.296;7.524;2023-05-09T06:06:04;95040.88;;;18.16;53.99
21182;BME280;10749;46.296;7.524;2023-05-09T06:08:30;95038.94;;;18.23;53.87
21182;BME280;10749;46.296;7.524;2023-05-09T06:10:55;95033.28;;;18.31;53.56
21182;BME280;10749;46.296;7.524;2023-05-09T06:13:20;95033.91;;;18.33;53.74
21182;BME280;10749;46.296;7.524;2023-05-09T06:15:45;95032.41;;;18.37;53.76
21182;BME280;10749;46.296;7.524;2023-05-09T06:18:11;95035.38;;;18.48;53.61
21182;BME280;10749;46.296;7.524;2023-05-09T06:20:36;95029.59;;;18.51;53.86
21182;BME280;10749;46.296;7.524;2023-05-09T06:23:02;95027.31;;;18.48;53.84
21182;BME280;10749;46.296;7.524;2023-05-09T06:25:27;95028.50;;;18.58;53.63
21182;BME280;10749;46.296;7.524;2023-05-09T06:27:52;95019.91;;;18.50;53.08
21182;BME280;10749;46.296;7.524;2023-05-09T06:30:18;95018.63;;;18.34;53.44
21182;BME280;10749;46.296;7.524;2023-05-09T06:32:43;95024.22;;;18.32;53.47
21182;BME280;10749;46.296;7.524;2023-05-09T06:35:08;95015.88;;;18.40;53.32
21182;BME280;10749;46.296;7.524;2023-05-09T06:37:33;95001.91;;;18.38;53.43
21182;BME280;10749;46.296;7.524;2023-05-09T06:39:59;95005.59;;;18.37;53.25
21182;BME280;10749;46.296;7.524;2023-05-09T06:42:24;94998.53;;;18.43;53.07
21182;BME280;10749;46.296;7.524;2023-05-09T06:44:50;94988.78;;;18.49;53.35
21182;BME280;10749;46.296;7.524;2023-05-09T06:47:15;94995.50;;;18.58;53.09
21182;BME280;10749;46.296;7.524;2023-05-09T06:49:41;94994.22;;;18.60;53.25
21182;BME280;10749;46.296;7.524;2023-05-09T06:52:07;94994.16;;;18.67;53.56
21182;BME280;10749;46.296;7.524;2023-05-09T06:54:32;94986.22;;;18.72;53.43
21182;BME280;10749;46.296;7.524;2023-05-09T06:56:58;94979.97;;;18.78;53.47
21182;BME280;10749;46.296;7.524;2023-05-09T06:59:24;94981.31;;;18.87;52.89
21182;BME280;10749;46.296;7.524;2023-05-09T07:01:49;94980.63;;;18.92;53.55
21182;BME280;10749;46.296;7.524;2023-05-09T07:04:14;94974.00;;;19.06;53.61
21182;BME280;10749;46.296;7.524;2023-05-09T07:06:39;94969.06;;;19.21;53.77
21182;BME280;10749;46.296;7.524;2023-05-09T07:09:05;94975.03;;;19.34;53.90
21182;BME280;10749;46.296;7.524;2023-05-09T07:11:36;94964.19;;;19.41;53.72
21182;BME280;10749;46.296;7.524;2023-05-09T07:14:02;94956.66;;;19.50;53.40
21182;BME280;10749;46.296;7.524;2023-05-09T07:16:27;94955.50;;;19.46;53.74
21182;BME280;10749;46.296;7.524;2023-05-09T07:18:54;94954.44;;;19.58;53.38
21182;BME280;10749;46.296;7.524;2023-05-09T07:21:19;94951.06;;;19.63;53.37
21182;BME280;10749;46.296;7.524;2023-05-09T07:23:44;94948.97;;;19.76;53.64
21182;BME280;10749;46.296;7.524;2023-05-09T07:26:10;94948.50;;;19.91;53.86
21182;BME280;10749;46.296;7.524;2023-05-09T07:28:35;94944.72;;;20.15;53.97
21182;BME280;10749;46.296;7.524;2023-05-09T07:31:00;94938.31;;;20.16;53.45
21182;BME280;10749;46.296;7.524;2023-05-09T07:33:25;94931.31;;;20.15;53.16
21182;BME280;10749;46.296;7.524;2023-05-09T07:35:51;94925.66;;;20.28;53.14
21182;BME280;10749;46.296;7.524;2023-05-09T07:38:17;94926.47;;;20.41;53.08
21182;BME280;10749;46.296;7.524;2023-05-09T07:40:42;94928.91;;;20.54;53.08
21182;BME280;10749;46.296;7.524;2023-05-09T07:43:07;94915.16;;;20.67;53.22
21182;BME280;10749;46.296;7.524;2023-05-09T07:45:33;94914.22;;;20.73;53.01
21182;BME280;10749;46.296;7.524;2023-05-09T07:47:58;94912.81;;;20.70;52.64
21182;BME280;10749;46.296;7.524;2023-05-09T07:50:24;94900.84;;;20.78;52.62
21182;BME280;10749;46.296;7.524;2023-05-09T07:52:49;94896.13;;;20.85;52.42
21182;BME280;10749;46.296;7.524;2023-05-09T07:55:15;94897.84;;;20.75;52.18
21182;BME280;10749;46.296;7.524;2023-05-09T07:57:41;94891.66;;;20.74;52.01
21182;BME280;10749;46.296;7.524;2023-05-09T08:00:07;94884.84;;;20.71;52.01
21182;BME280;10749;46.296;7.524;2023-05-09T08:02:33;94887.75;;;20.82;52.00
21182;BME280;10749;46.296;7.524;2023-05-09T08:04:58;94880.31;;;20.89;52.08
21182;BME280;10749;46.296;7.524;2023-05-09T08:07:23;94868.94;;;20.98;51.96
21182;BME280;10749;46.296;7.524;2023-05-09T08:09:49;94870.09;;;21.02;51.86
21182;BME280;10749;46.296;7.524;2023-05-09T08:12:14;94865.09;;;20.94;51.46
21182;BME280;10749;46.296;7.524;2023-05-09T08:14:39;94857.50;;;20.91;51.60
21182;BME280;10749;46.296;7.524;2023-05-09T08:17:05;94850.00;;;20.93;51.35
21182;BME280;10749;46.296;7.524;2023-05-09T08:19:30;94849.44;;;20.91;51.56
21182;BME280;10749;46.296;7.524;2023-05-09T08:21:55;94841.34;;;20.91;51.07
21182;BME280;10749;46.296;7.524;2023-05-09T08:24:20;94845.53;;;20.99;51.21
21182;BME280;10749;46.296;7.524;2023-05-09T08:26:46;94840.44;;;21.14;51.06
21182;BME280;10749;46.296;7.524;2023-05-09T08:29:11;94836.00;;;21.25;51.06
21182;BME280;10749;46.296;7.524;2023-05-09T08:31:36;94833.59;;;21.23;50.94
21182;BME280;10749;46.296;7.524;2023-05-09T08:34:02;94825.91;;;21.32;51.00
21182;BME280;10749;46.296;7.524;2023-05-09T08:36:27;94819.09;;;21.46;50.79
21182;BME280;10749;46.296;7.524;2023-05-09T08:38:52;94819.81;;;21.58;50.99
21182;BME280;10749;46.296;7.524;2023-05-09T08:41:21;94809.97;;;21.47;50.72
21182;BME280;10749;46.296;7.524;2023-05-09T08:43:49;94798.22;;;21.53;50.49
21182;BME280;10749;46.296;7.524;2023-05-09T08:46:15;94806.72;;;21.45;50.40
21182;BME280;10749;46.296;7.524;2023-05-09T08:48:41;94796.59;;;21.52;50.29
21182;BME280;10749;46.296;7.524;2023-05-09T08:51:08;94800.41;;;21.56;50.23
21182;BME280;10749;46.296;7.524;2023-05-09T08:53:36;94792.72;;;21.64;50.00
21182;BME280;10749;46.296;7.524;2023-05-09T08:56:02;94784.88;;;21.63;50.35
21182;BME280;10749;46.296;7.524;2023-05-09T08:58:27;94788.94;;;21.82;50.52
21182;BME280;10749;46.296;7.524;2023-05-09T09:00:53;94775.50;;;21.87;50.20
21182;BME280;10749;46.296;7.524;2023-05-09T09:03:19;94769.28;;;21.87;49.90
21182;BME280;10749;46.296;7.524;2023-05-09T09:05:45;94778.78;;;21.89;49.90
21182;BME280;10749;46.296;7.524;2023-05-09T09:08:12;94769.63;;;21.90;49.38
21182;BME280;10749;46.296;7.524;2023-05-09T09:10:40;94764.81;;;21.92;49.56
21182;BME280;10749;46.296;7.524;2023-05-09T09:13:12;94759.28;;;22.04;49.82
21182;BME280;10749;46.296;7.524;2023-05-09T09:15:39;94758.00;;;22.06;49.48
21182;BME280;10749;46.296;7.524;2023-05-09T09:18:07;94745.38;;;22.12;49.44
21182;BME280;10749;46.296;7.524;2023-05-09T09:20:49;94743.97;;;22.31;49.24
21182;BME280;10749;46.296;7.524;2023-05-09T09:23:19;94739.22;;;22.43;49.54
21182;BME280;10749;46.296;7.524;2023-05-09T09:25:47;94733.91;;;22.53;49.39
21182;BME280;10749;46.296;7.524;2023-05-09T09:28:13;94719.75;;;22.68;49.20
21182;BME280;10749;46.296;7.524;2023-05-09T09:30:46;94720.97;;;22.77;49.24
21182;BME280;10749;46.296;7.524;2023-05-09T09:33:18;94707.28;;;22.89;49.25
21182;BME280;10749;46.296;7.524;2023-05-09T09:35:44;94708.09;;;22.89;48.84
21182;BME280;10749;46.296;7.524;2023-05-09T09:38:09;94709.22;;;22.98;48.88
21182;BME280;10749;46.296;7.524;2023-05-09T09:40:35;94700.16;;;23.15;48.37
21182;BME280;10749;46.296;7.524;2023-05-09T09:43:05;94698.03;;;23.22;48.88
21182;BME280;10749;46.296;7.524;2023-05-09T09:45:31;94693.78;;;23.31;48.77
21182;BME280;10749;46.296;7.524;2023-05-09T09:47:56;94686.31;;;23.43;48.46
21182;BME280;10749;46.296;7.524;2023-05-09T09:50:21;94687.16;;;23.54;48.63
21182;BME280;10749;46.296;7.524;2023-05-09T09:52:52;94682.03;;;23.57;48.31
21182;BME280;10749;46.296;7.524;2023-05-09T09:55:18;94683.13;;;23.56;47.92
21182;BME280;10749;46.296;7.524;2023-05-09T09:57:45;94672.03;;;23.58;47.63
21182;BME280;10749;46.296;7.524;2023-05-09T10:00:13;94668.31;;;23.64;47.53
21182;BME280;10749;46.296;7.524;2023-05-09T10:02:50;94656.41;;;23.65;47.16
21182;BME280;10749;46.296;7.524;2023-05-09T10:05:27;94656.72;;;23.78;47.22
21182;BME280;10749;46.296;7.524;2023-05-09T10:07:57;94649.16;;;23.85;47.05
21182;BME280;10749;46.296;7.524;2023-05-09T10:10:27;94638.38;;;23.90;47.03
21182;BME280;10749;46.296;7.524;2023-05-09T10:12:55;94629.22;;;24.07;46.74
21182;BME280;10749;46.296;7.524;2023-05-09T10:15:22;94631.91;;;24.07;46.53
21182;BME280;10749;46.296;7.524;2023-05-09T10:17:52;94627.03;;;23.99;46.21
21182;BME280;10749;46.296;7.524;2023-05-09T10:20:18;94617.34;;;23.98;46.11
21182;BME280;10749;46.296;7.524;2023-05-09T10:22:44;94602.72;;;24.04;46.10
21182;BME280;10749;46.296;7.524;2023-05-09T10:25:18;94601.38;;;24.11;47.21
21182;BME280;10749;46.296;7.524;2023-05-09T10:27:45;94606.53;;;23.98;46.48
21182;BME280;10749;46.296;7.524;2023-05-09T10:30:17;94602.72;;;24.04;46.29
21182;BME280;10749;46.296;7.524;2023-05-09T10:32:53;94604.88;;;24.07;45.86
21182;BME280;10749;46.296;7.524;2023-05-09T10:35:25;94598.41;;;24.13;45.31
21182;BME280;10749;46.296;7.524;2023-05-09T10:37:54;94592.19;;;24.12;44.76
21182;BME280;10749;46.296;7.524;2023-05-09T10:40:21;94588.13;;;24.05;46.04
21182;BME280;10749;46.296;7.524;2023-05-09T10:42:46;94577.59;;;23.93;45.03
21182;BME280;10749;46.296;7.524;2023-05-09T10:45:12;94578.13;;;24.00;44.98
21182;BME280;10749;46.296;7.524;2023-05-09T10:47:39;94576.53;;;24.09;44.78
21182;BME280;10749;46.296;7.524;2023-05-09T10:50:09;94563.28;;;24.13;44.83
21182;BME280;10749;46.296;7.524;2023-05-09T11:00:44;94540.56;;;24.49;44.93
21182;BME280;10749;46.296;7.524;2023-05-09T11:03:10;94537.84;;;24.59;44.47
21182;BME280;10749;46.296;7.524;2023-05-09T11:05:39;94532.38;;;24.69;43.90
21182;BME280;10749;46.296;7.524;2023-05-09T11:08:18;94529.19;;;24.57;43.06
21182;BME280;10749;46.296;7.524;2023-05-09T11:10:43;94533.22;;;24.65;42.71
21182;BME280;10749;46.296;7.524;2023-05-09T11:13:09;94524.25;;;24.85;43.16
21182;BME280;10749;46.296;7.524;2023-05-09T11:15:35;94523.19;;;24.86;42.39
21182;BME280;10749;46.296;7.524;2023-05-09T11:18:10;94528.84;;;24.94;42.28
21182;BME280;10749;46.296;7.524;2023-05-09T11:20:42;94511.00;;;24.88;41.94
21182;BME280;10749;46.296;7.524;2023-05-09T11:23:08;94514.25;;;24.75;40.86
21182;BME280;10749;46.296;7.524;2023-05-09T11:25:37;94506.44;;;24.63;41.14
21182;BME280;10749;46.296;7.524;2023-05-09T11:28:03;94497.22;;;24.64;40.71
21182;BME280;10749;46.296;7.524;2023-05-09T11:30:40;94494.00;;;24.62;40.45
21182;BME280;10749;46.296;7.524;2023-05-09T11:33:20;94484.00;;;24.58;40.29
21182;BME280;10749;46.296;7.524;2023-05-09T11:35:46;94482.09;;;24.63;40.11
21182;BME280;10749;46.296;7.524;2023-05-09T11:38:19;94484.25;;;24.66;40.19
21182;BME280;10749;46.296;7.524;2023-05-09T11:40:45;94473.94;;;24.73;40.09
21182;BME280;10749;46.296;7.524;2023-05-09T11:43:11;94473.91;;;24.83;41.08
21182;BME280;10749;46.296;7.524;2023-05-09T11:45:37;94473.06;;;24.93;41.88
21182;BME280;10749;46.296;7.524;2023-05-09T11:48:07;94472.28;;;24.82;40.69
21182;BME280;10749;46.296;7.524;2023-05-09T11:50:32;94469.06;;;24.75;40.01
21182;BME280;10749;46.296;7.524;2023-05-09T11:52:58;94463.66;;;24.80;39.07
21182;BME280;10749;46.296;7.524;2023-05-09T11:55:23;94460.09;;;24.85;40.20
21182;BME280;10749;46.296;7.524;2023-05-09T11:57:53;94459.84;;;24.92;40.78
21182;BME280;10749;46.296;7.524;2023-05-09T12:00:24;94455.78;;;24.84;41.15
21182;BME280;10749;46.296;7.524;2023-05-09T12:02:50;94444.16;;;24.78;40.65
21182;BME280;10749;46.296;7.524;2023-05-09T12:05:17;94436.88;;;24.74;39.54
21182;BME280;10749;46.296;7.524;2023-05-09T12:07:44;94434.22;;;24.59;38.46
21182;BME280;10749;46.296;7.524;2023-05-09T12:10:12;94431.78;;;24.62;38.51
21182;BME280;10749;46.296;7.524;2023-05-09T12:12:56;94429.78;;;24.83;38.79
21182;BME280;10749;46.296;7.524;2023-05-09T12:15:21;94440.88;;;24.97;38.84
21182;BME280;10749;46.296;7.524;2023-05-09T12:17:59;94434.31;;;25.03;38.46
21182;BME280;10749;46.296;7.524;2023-05-09T12:20:25;94424.06;;;25.00;39.18
21182;BME280;10749;46.296;7.524;2023-05-09T12:22:53;94422.94;;;25.06;39.18
21182;BME280;10749;46.296;7.524;2023-05-09T12:25:21;94428.31;;;25.11;38.72
21182;BME280;10749;46.296;7.524;2023-05-09T12:27:46;94420.28;;;25.01;38.48
21182;BME280;10749;46.296;7.524;2023-05-09T12:30:12;94408.41;;;24.92;38.64
21182;BME280;10749;46.296;7.524;2023-05-09T12:32:38;94412.44;;;24.94;39.17
21182;BME280;10749;46.296;7.524;2023-05-09T12:35:06;94423.56;;;24.82;38.24
21182;BME280;10749;46.296;7.524;2023-05-09T12:37:32;94417.91;;;24.79;38.50
21182;BME280;10749;46.296;7.524;2023-05-09T12:40:24;94410.38;;;24.66;38.53
21182;BME280;10749;46.296;7.524;2023-05-09T12:42:49;94409.31;;;24.62;38.41
21182;BME280;10749;46.296;7.524;2023-05-09T12:45:18;94405.28;;;24.54;38.37
21182;BME280;10749;46.296;7.524;2023-05-09T12:47:43;94410.16;;;24.57;38.86
21182;BME280;10749;46.296;7.524;2023-05-09T12:50:10;94401.50;;;24.55;38.72
21182;BME280;10749;46.296;7.524;2023-05-09T12:52:38;94402.66;;;24.39;39.03
21182;BME280;10749;46.296;7.524;2023-05-09T12:55:11;94398.06;;;24.29;39.19
21182;BME280;10749;46.296;7.524;2023-05-09T12:57:37;94397.25;;;24.29;39.40
21182;BME280;10749;46.296;7.524;2023-05-09T13:00:05;94402.66;;;24.29;39.58
21182;BME280;10749;46.296;7.524;2023-05-09T13:02:35;94392.66;;;24.14;40.04
21182;BME280;10749;46.296;7.524;2023-05-09T13:05:06;94390.56;;;24.01;39.91
21182;BME280;10749;46.296;7.524;2023-05-09T13:07:40;94391.38;;;23.97;40.12
21182;BME280;10749;46.296;7.524;2023-05-09T13:10:12;94388.41;;;23.88;40.33
21182;BME280;10749;46.296;7.524;2023-05-09T13:12:38;94390.84;;;23.84;40.47
21182;BME280;10749;46.296;7.524;2023-05-09T13:15:05;94391.66;;;23.75;40.43